Time;durP1;ratioP1;P1;durP2;ratioP2;P2;SDS_P1;SDS_P2;PMS_P1;PMS_P2;Temp;Humidity;BMP_temperature;BMP_pressure;BME280_temperature;BME280_humidity;BME280_pressure;Samples;Min_cycle;Max_cycle;Signal;HPM_P1;HPM_P2
2022/07/26 00:04:58;;;;;;;6.03;2.33;;;23.20;71.40;;;;;;10353407;28;20264;-71
2022/07/26 00:09:59;;;;;;;4.90;2.60;;;23.20;71.80;;;;;;10350304;28;20604;-70
2022/07/26 00:14:59;;;;;;;4.97;2.20;;;23.00;71.90;;;;;;10357926;28;20663;-70
2022/07/26 00:20:00;;;;;;;8.07;2.60;;;22.90;71.70;;;;;;10350434;28;20227;-71
2022/07/26 00:25:06;;;;;;;5.63;2.40;;;22.90;71.30;;;;;;10350244;28;20223;-71
2022/07/26 00:30:08;;;;;;;4.93;2.20;;;22.80;71.50;;;;;;10349708;28;20324;-72
2022/07/26 00:35:09;;;;;;;5.37;2.80;;;22.70;71.90;;;;;;10353795;28;20226;-72
2022/07/26 00:40:16;;;;;;;7.27;2.53;;;22.60;72.00;;;;;;10352108;28;20190;-71
2022/07/26 00:45:18;;;;;;;4.73;2.13;;;22.60;71.70;;;;;;10355629;28;20222;-72
2022/07/26 00:50:18;;;;;;;7.63;2.10;;;22.50;71.40;;;;;;10354120;28;20618;-72
2022/07/26 00:55:19;;;;;;;4.47;2.10;;;22.40;72.40;;;;;;10351878;28;20228;-71
2022/07/26 01:00:26;;;;;;;5.80;2.30;;;22.40;73.30;;;;;;10354268;28;20606;-71
2022/07/26 01:05:27;;;;;;;3.97;2.10;;;22.30;74.20;;;;;;10346051;28;20692;-70
2022/07/26 01:10:28;;;;;;;6.83;2.30;;;22.10;74.80;;;;;;10361528;28;20213;-70
2022/07/26 01:15:29;;;;;;;2.70;1.97;;;22.10;75.50;;;;;;10358339;28;20696;-71
2022/07/26 01:20:29;;;;;;;10.73;2.60;;;22.00;75.90;;;;;;10358478;28;20225;-71
2022/07/26 01:25:32;;;;;;;5.70;2.20;;;21.90;76.30;;;;;;10359411;28;20800;-72
2022/07/26 01:30:35;;;;;;;7.37;2.77;;;21.90;76.80;;;;;;10360443;28;20305;-72
2022/07/26 01:35:36;;;;;;;5.37;2.30;;;21.90;77.00;;;;;;10367587;28;20246;-71
2022/07/26 01:40:36;;;;;;;5.77;2.50;;;21.80;77.30;;;;;;10361207;28;20241;-72
2022/07/26 01:45:40;;;;;;;3.70;2.40;;;21.70;77.70;;;;;;10358636;28;20260;-71
2022/07/26 01:50:44;;;;;;;3.43;2.10;;;21.60;78.30;;;;;;10353441;28;20233;-72
2022/07/26 01:55:44;;;;;;;6.90;2.83;;;21.50;79.00;;;;;;10358266;28;20597;-72
2022/07/26 02:00:45;;;;;;;4.53;2.13;;;21.40;80.00;;;;;;10353374;28;20226;-72
2022/07/26 02:05:45;;;;;;;4.47;2.37;;;21.40;80.50;;;;;;10359970;28;20225;-71
2022/07/26 02:11:01;;;;;;;5.30;2.20;;;21.40;81.20;;;;;;10357765;28;20276;-71
2022/07/26 02:16:04;;;;;;;4.07;2.43;;;21.30;81.50;;;;;;10355798;28;20251;-72
2022/07/26 02:21:05;;;;;;;3.27;1.80;;;21.20;82.50;;;;;;10354137;28;20221;-72
2022/07/26 02:26:08;;;;;;;3.13;2.00;;;21.20;83.10;;;;;;10362294;28;20225;-71
2022/07/26 02:31:09;;;;;;;3.63;2.10;;;21.20;83.20;;;;;;10358299;28;20222;-71
2022/07/26 02:36:10;;;;;;;6.60;2.07;;;21.10;83.70;;;;;;10354197;28;20228;-72
2022/07/26 02:41:10;;;;;;;6.03;2.40;;;21.20;83.30;;;;;;10376190;28;20222;-71
2022/07/26 02:46:11;;;;;;;9.90;2.53;;;21.30;83.30;;;;;;10357911;28;20237;-71
2022/07/26 02:51:11;;;;;;;5.40;2.10;;;21.30;83.80;;;;;;10352497;28;20364;-72
2022/07/26 02:56:12;;;;;;;7.50;2.50;;;21.40;84.20;;;;;;10355475;28;20725;-71
2022/07/26 03:01:13;;;;;;;5.33;2.43;;;21.50;83.60;;;;;;10357086;28;20714;-72
2022/07/26 03:06:13;;;;;;;5.23;2.37;;;21.50;82.90;;;;;;10351815;28;20236;-72
2022/07/26 03:11:15;;;;;;;6.23;2.30;;;21.60;82.90;;;;;;10357179;28;20226;-72
2022/07/26 03:16:15;;;;;;;5.57;2.10;;;21.60;82.70;;;;;;10360053;28;20345;-71
2022/07/26 03:21:16;;;;;;;4.73;1.93;;;21.70;82.70;;;;;;10350243;28;20313;-71
2022/07/26 03:26:19;;;;;;;4.67;2.20;;;21.60;82.80;;;;;;10365029;28;20723;-70
2022/07/26 03:31:22;;;;;;;4.73;2.10;;;21.60;83.20;;;;;;10362068;28;20236;-70
2022/07/26 03:36:22;;;;;;;4.30;2.27;;;21.70;83.50;;;;;;10348523;28;20225;-72
2022/07/26 03:41:23;;;;;;;5.07;2.37;;;21.60;83.60;;;;;;10365477;28;20218;-71
2022/07/26 03:46:23;;;;;;;5.07;2.60;;;21.60;84.50;;;;;;10354664;28;20232;-70
2022/07/26 03:51:24;;;;;;;9.47;2.90;;;21.60;85.40;;;;;;10347873;28;20301;-71
2022/07/26 03:56:27;;;;;;;4.73;2.70;;;21.50;86.40;;;;;;10354522;28;20589;-71
2022/07/26 04:01:33;;;;;;;5.73;2.10;;;21.60;87.20;;;;;;10347771;28;20280;-72
2022/07/26 04:06:34;;;;;;;5.33;2.10;;;21.60;87.30;;;;;;10355968;28;20255;-71
2022/07/26 04:11:35;;;;;;;5.20;2.03;;;21.60;87.10;;;;;;10349020;28;20225;-72
2022/07/26 04:16:36;;;;;;;3.93;1.80;;;21.60;85.60;;;;;;10360692;28;20275;-71
2022/07/26 04:21:39;;;;;;;4.67;1.90;;;21.70;85.40;;;;;;10347833;28;20233;-71
2022/07/26 04:26:40;;;;;;;3.90;2.40;;;21.80;84.80;;;;;;10352397;28;20233;-71
2022/07/26 04:31:40;;;;;;;5.83;1.90;;;21.90;83.70;;;;;;10367508;28;20594;-71
2022/07/26 04:37:25;;;;;;;4.63;2.10;;;21.90;83.80;;;;;;10353455;28;20632;-71
2022/07/26 04:42:26;;;;;;;4.07;2.03;;;22.00;83.30;;;;;;10362244;28;20669;-71
2022/07/26 04:47:26;;;;;;;7.77;2.30;;;22.00;82.50;;;;;;10352680;28;20248;-71
2022/07/26 04:52:27;;;;;;;17.80;3.23;;;21.90;82.20;;;;;;10352549;28;20711;-71
2022/07/26 04:57:34;;;;;;;6.10;2.13;;;22.10;82.60;;;;;;10354781;28;20767;-71
2022/07/26 05:02:34;;;;;;;5.17;1.80;;;22.40;81.30;;;;;;10355669;28;20751;-71
2022/07/26 05:07:43;;;;;;;3.10;1.40;;;22.60;79.90;;;;;;10366231;28;20287;-72
2022/07/26 05:12:45;;;;;;;5.23;2.43;;;23.00;77.40;;;;;;10363185;28;20267;-72
2022/07/26 05:17:46;;;;;;;3.63;1.60;;;22.90;76.10;;;;;;10364718;28;20760;-71
2022/07/26 05:22:47;;;;;;;5.77;1.80;;;22.80;76.90;;;;;;10361356;28;20317;-72
2022/07/26 05:27:47;;;;;;;4.17;1.83;;;22.60;78.10;;;;;;10362745;28;20736;-72
2022/07/26 05:32:48;;;;;;;3.53;2.00;;;22.50;77.50;;;;;;10377931;28;20225;-72
2022/07/26 05:37:49;;;;;;;4.93;1.77;;;22.60;77.90;;;;;;10361713;28;20308;-72
2022/07/26 05:42:49;;;;;;;6.93;2.20;;;22.60;78.40;;;;;;10354385;28;20240;-72
2022/07/26 05:47:51;;;;;;;6.93;1.67;;;22.70;76.80;;;;;;10353050;28;20658;-72
2022/07/26 05:52:51;;;;;;;1.90;1.03;;;25.20;69.30;;;;;;10357175;28;20244;-71
2022/07/26 05:57:52;;;;;;;5.50;1.50;;;28.20;58.10;;;;;;10364596;28;20237;-72
2022/07/26 06:02:52;;;;;;;6.93;1.60;;;30.40;52.50;;;;;;10362380;28;20235;-71
2022/07/26 06:07:53;;;;;;;5.00;1.63;;;32.10;49.10;;;;;;10352287;28;20244;-72
2022/07/26 06:12:53;;;;;;;2.87;1.10;;;32.80;46.30;;;;;;10356831;28;20331;-72
2022/07/26 06:17:54;;;;;;;4.20;1.43;;;34.00;43.90;;;;;;10354920;28;20221;-72
2022/07/26 06:22:57;;;;;;;2.70;1.27;;;34.60;42.20;;;;;;10363277;28;20779;-71
2022/07/26 06:27:57;;;;;;;4.30;1.40;;;35.50;40.60;;;;;;10358470;28;20253;-71
2022/07/26 06:32:58;;;;;;;3.53;1.10;;;36.20;38.90;;;;;;10364323;28;20241;-72
2022/07/26 06:37:59;;;;;;;6.40;1.20;;;36.60;38.10;;;;;;10361943;28;20312;-72
2022/07/26 06:43:00;;;;;;;4.93;1.50;;;35.70;38.50;;;;;;10355509;28;20607;-72
2022/07/26 06:48:03;;;;;;;3.40;1.03;;;35.80;39.00;;;;;;10354376;28;20233;-72
2022/07/26 06:53:04;;;;;;;3.13;0.83;;;36.60;37.40;;;;;;10354091;28;20268;-71
2022/07/26 06:58:05;;;;;;;5.53;1.10;;;37.30;36.40;;;;;;10355214;28;20252;-71
2022/07/26 07:03:05;;;;;;;2.17;1.17;;;37.90;35.60;;;;;;10358962;28;20229;-72
2022/07/26 07:08:06;;;;;;;2.07;0.90;;;38.60;34.80;;;;;;10361079;28;20233;-72
2022/07/26 07:13:07;;;;;;;6.10;1.30;;;38.90;33.80;;;;;;10356752;28;20279;-71
2022/07/26 07:18:07;;;;;;;3.60;1.20;;;38.90;33.60;;;;;;10357268;28;20225;-72
2022/07/26 07:23:08;;;;;;;2.37;1.20;;;38.70;33.70;;;;;;10364097;28;20274;-71
2022/07/26 07:28:08;;;;;;;5.17;0.80;;;38.90;33.50;;;;;;10364110;28;20247;-72
2022/07/26 07:33:11;;;;;;;3.50;1.10;;;38.60;34.10;;;;;;10357651;28;20229;-72
2022/07/26 07:38:12;;;;;;;1.63;1.00;;;38.70;33.20;;;;;;10351617;28;20313;-72
2022/07/26 07:43:13;;;;;;;2.63;1.20;;;39.00;33.10;;;;;;10356360;28;20304;-72
2022/07/26 07:48:16;;;;;;;3.77;1.40;;;39.60;32.50;;;;;;10347833;28;20233;-72
2022/07/26 07:53:17;;;;;;;4.67;1.20;;;39.70;32.50;;;;;;10353611;28;20221;-72
2022/07/26 07:58:19;;;;;;;3.83;1.33;;;40.60;31.20;;;;;;10350670;28;20264;-72
2022/07/26 08:03:19;;;;;;;2.70;1.20;;;41.40;30.00;;;;;;10346285;28;20226;-72
2022/07/26 08:08:20;;;;;;;4.37;1.60;;;40.00;31.50;;;;;;10355292;28;20327;-72
2022/07/26 08:13:24;;;;;;;6.30;1.20;;;38.90;32.10;;;;;;10355730;28;20217;-72
2022/07/26 08:18:30;;;;;;;3.27;1.27;;;37.30;34.80;;;;;;10355210;28;20213;-72
2022/07/26 08:23:31;;;;;;;4.80;1.27;;;35.80;36.10;;;;;;10355018;28;20789;-72
2022/07/26 08:28:31;;;;;;;4.70;1.43;;;33.80;39.60;;;;;;10347616;28;20259;-72
2022/07/26 08:33:32;;;;;;;3.17;1.20;;;34.70;38.30;;;;;;10355068;28;20221;-71
2022/07/26 08:38:32;;;;;;;4.43;1.20;;;33.70;39.80;;;;;;10361361;28;20225;-72
2022/07/26 08:43:33;;;;;;;3.07;1.30;;;32.70;42.00;;;;;;10346667;28;20222;-71
2022/07/26 08:48:34;;;;;;;4.40;1.33;;;35.80;37.70;;;;;;10354470;28;20314;-73
2022/07/26 08:53:38;;;;;;;3.43;1.27;;;39.10;33.20;;;;;;10346525;28;20222;-72
2022/07/26 08:58:39;;;;;;;6.03;1.13;;;38.50;32.40;;;;;;10353653;28;20565;-72
2022/07/26 09:03:44;;;;;;;4.00;1.10;;;38.20;34.20;;;;;;10348084;28;20615;-72
2022/07/26 09:08:49;;;;;;;1.60;0.87;;;40.30;31.20;;;;;;10354733;28;20229;-72
2022/07/26 09:13:53;;;;;;;2.30;1.03;;;38.20;32.80;;;;;;10361448;28;20206;-71
2022/07/26 09:19:12;;;;;;;4.27;1.20;;;36.80;35.10;;;;;;10351970;28;20226;-71
2022/07/26 09:24:29;;;;;;;1.67;1.00;;;35.10;37.20;;;;;;10353932;28;20245;-72
2022/07/26 09:29:30;;;;;;;4.13;1.20;;;36.30;35.80;;;;;;10346486;28;20763;-71
2022/07/26 09:34:31;;;;;;;4.13;1.40;;;35.20;36.50;;;;;;10361800;28;20214;-70
2022/07/26 09:39:32;;;;;;;4.57;1.43;;;33.60;39.10;;;;;;10361900;28;20224;-71
2022/07/26 09:44:39;;;;;;;2.73;1.20;;;32.20;41.20;;;;;;10354111;28;20360;-72
2022/07/26 09:49:41;;;;;;;2.17;1.20;;;31.10;42.60;;;;;;10360379;28;20225;-71
2022/07/26 09:54:45;;;;;;;2.17;1.10;;;33.50;40.70;;;;;;10354254;28;20767;-71
2022/07/26 09:59:46;;;;;;;1.90;0.80;;;36.40;34.70;;;;;;10365454;28;20313;-71
2022/07/26 10:04:47;;;;;;;3.17;1.20;;;35.10;35.90;;;;;;10355116;28;20348;-72
2022/07/26 10:09:55;;;;;;;3.13;1.20;;;33.60;38.60;;;;;;10373597;28;20304;-71
2022/07/26 10:14:56;;;;;;;1.37;0.80;;;35.90;36.20;;;;;;10355316;28;20228;-72
2022/07/26 10:20:38;;;;;;;1.63;0.87;;;37.80;33.30;;;;;;10356707;28;20231;-72
2022/07/26 10:25:47;;;;;;;3.33;1.03;;;41.70;29.10;;;;;;10352045;28;20252;-72
2022/07/26 10:30:47;;;;;;;1.70;1.00;;;39.80;29.70;;;;;;10357635;28;20217;-70
2022/07/26 10:35:51;;;;;;;3.33;1.00;;;38.30;32.00;;;;;;10353771;28;20221;-71
2022/07/26 10:41:06;;;;;;;3.17;1.30;;;36.30;34.20;;;;;;10357316;28;20217;-71
2022/07/26 10:46:27;;;;;;;2.33;1.50;;;33.90;37.80;;;;;;10365693;28;20257;-72
2022/07/26 10:51:36;;;;;;;2.80;0.90;;;32.10;40.50;;;;;;10350297;28;20222;-71
2022/07/26 10:56:36;;;;;;;5.70;1.33;;;31.00;43.00;;;;;;10351929;28;20587;-71
2022/07/26 11:01:40;;;;;;;3.67;1.30;;;32.20;41.60;;;;;;10357230;28;20217;-72
2022/07/26 11:06:40;;;;;;;2.23;1.30;;;35.70;35.90;;;;;;10358822;28;20239;-72
2022/07/26 11:11:41;;;;;;;2.83;0.90;;;37.60;33.40;;;;;;10358237;28;20221;-73
2022/07/26 11:16:44;;;;;;;2.67;0.87;;;39.90;30.90;;;;;;10365171;28;20731;-73
2022/07/26 11:21:57;;;;;;;47.00;5.10;;;42.50;28.60;;;;;;10357789;28;20272;-71
2022/07/26 11:27:02;;;;;;;3.90;1.13;;;44.00;27.20;;;;;;10359183;28;20719;-72
2022/07/26 11:32:15;;;;;;;1.93;1.00;;;44.00;25.80;;;;;;10353906;28;20226;-72
2022/07/26 11:37:16;;;;;;;1.63;0.90;;;41.20;27.80;;;;;;10362041;28;20229;-71
2022/07/26 11:42:20;;;;;;;3.13;0.90;;;38.10;30.80;;;;;;10351128;28;20589;-72
2022/07/26 11:47:22;;;;;;;1.67;0.80;;;36.40;33.00;;;;;;10355107;28;20612;-71
2022/07/26 11:52:29;;;;;;;1.10;0.97;;;35.60;33.50;;;;;;10349272;28;20229;-71
2022/07/26 11:57:30;;;;;;;2.37;1.10;;;34.50;35.10;;;;;;10357213;28;20217;-72
2022/07/26 12:02:31;;;;;;;1.70;0.97;;;33.70;35.80;;;;;;10356808;28;20706;-72
2022/07/26 12:07:32;;;;;;;3.17;0.97;;;33.40;36.90;;;;;;10356696;28;20225;-71
2022/07/26 12:12:32;;;;;;;1.30;0.90;;;32.80;38.00;;;;;;10347981;28;20689;-72
2022/07/26 12:17:33;;;;;;;2.20;1.00;;;32.10;39.30;;;;;;10356110;28;20216;-71
2022/07/26 12:22:34;;;;;;;3.63;1.20;;;32.10;40.00;;;;;;10354767;28;20225;-72
2022/07/26 12:27:44;;;;;;;5.67;1.07;;;32.00;39.40;;;;;;10353471;28;20225;-71
2022/07/26 12:32:47;;;;;;;1.97;0.80;;;31.60;41.10;;;;;;10364331;28;20212;-71
2022/07/26 12:37:51;;;;;;;2.37;0.90;;;31.30;41.40;;;;;;10359991;28;20304;-73
2022/07/26 12:43:00;;;;;;;3.27;1.30;;;31.50;40.60;;;;;;10350441;28;20222;-72
2022/07/26 12:48:05;;;;;;;1.77;0.80;;;32.00;39.50;;;;;;10345380;28;20757;-72
2022/07/26 12:53:07;;;;;;;3.37;1.30;;;32.20;38.40;;;;;;10348830;28;20225;-72
2022/07/26 12:58:08;;;;;;;2.43;0.90;;;32.10;39.90;;;;;;10358461;28;20645;-72
2022/07/26 13:03:09;;;;;;;2.63;0.80;;;32.00;38.60;;;;;;10362430;28;20271;-72
2022/07/26 13:08:09;;;;;;;4.67;1.20;;;31.70;39.40;;;;;;10353953;28;20579;-72
2022/07/26 13:13:10;;;;;;;2.27;0.83;;;31.30;42.00;;;;;;10370562;28;20270;-72
2022/07/26 13:18:11;;;;;;;2.53;1.20;;;31.20;41.50;;;;;;10365219;28;20249;-71
2022/07/26 13:23:11;;;;;;;2.60;0.90;;;31.30;42.00;;;;;;10354571;28;20583;-72
2022/07/26 13:28:12;;;;;;;3.20;1.70;;;30.90;43.00;;;;;;10365693;28;20217;-72
2022/07/26 13:33:13;;;;;;;4.13;1.43;;;30.50;43.50;;;;;;10364429;28;20324;-72
2022/07/26 13:38:13;;;;;;;2.97;1.10;;;30.20;44.40;;;;;;10362695;28;20245;-72
2022/07/26 13:43:14;;;;;;;2.13;1.20;;;30.20;44.40;;;;;;10359160;28;20225;-70
2022/07/26 13:48:14;;;;;;;4.53;1.10;;;29.80;43.80;;;;;;10354913;28;20236;-71
2022/07/26 13:53:15;;;;;;;3.77;1.17;;;29.70;44.70;;;;;;10369233;28;20249;-71
2022/07/26 13:58:17;;;;;;;2.67;1.20;;;29.60;45.00;;;;;;10359336;28;20253;-72
2022/07/26 14:03:18;;;;;;;2.60;1.40;;;29.40;45.80;;;;;;10355488;28;20221;-71
2022/07/26 14:08:19;;;;;;;2.27;1.20;;;29.40;46.00;;;;;;10358970;28;20256;-72
2022/07/26 14:13:19;;;;;;;2.43;1.40;;;29.40;46.00;;;;;;10354285;28;20306;-72
2022/07/26 14:18:20;;;;;;;4.60;1.87;;;29.30;46.10;;;;;;10358707;28;20221;-71
2022/07/26 14:23:23;;;;;;;2.43;1.33;;;29.20;45.70;;;;;;10353971;28;20225;-72
2022/07/26 14:28:27;;;;;;;2.10;1.20;;;29.70;45.20;;;;;;10365013;28;20776;-72
2022/07/26 14:33:29;;;;;;;5.53;1.43;;;30.30;44.10;;;;;;10362659;28;20576;-72
2022/07/26 14:38:32;;;;;;;3.30;1.30;;;30.30;43.70;;;;;;10352276;28;20638;-71
2022/07/26 14:43:41;;;;;;;3.97;1.40;;;29.80;43.90;;;;;;10358553;28;20241;-72
2022/07/26 14:48:42;;;;;;;2.20;1.27;;;29.50;45.20;;;;;;10352003;28;20234;-71
2022/07/26 14:53:45;;;;;;;3.73;1.20;;;29.70;43.90;;;;;;10357013;28;20221;-72
2022/07/26 14:58:46;;;;;;;1.47;1.20;;;30.10;43.00;;;;;;10352689;28;20214;-71
2022/07/26 15:03:48;;;;;;;4.50;1.33;;;30.30;42.50;;;;;;10358523;28;20210;-71
2022/07/26 15:08:49;;;;;;;3.37;1.37;;;30.10;43.80;;;;;;10356512;28;20643;-71
2022/07/26 15:13:50;;;;;;;3.03;1.47;;;30.10;43.60;;;;;;10362416;28;20237;-72
2022/07/26 15:18:50;;;;;;;1.63;1.17;;;30.30;43.10;;;;;;10365651;28;20225;-71
2022/07/26 15:23:51;;;;;;;3.83;1.40;;;30.60;41.20;;;;;;10359953;28;20229;-71
2022/07/26 15:28:55;;;;;;;3.40;1.40;;;30.50;41.50;;;;;;10352198;28;20288;-72
2022/07/26 15:33:56;;;;;;;2.87;1.43;;;30.30;43.10;;;;;;10353577;28;20214;-71
2022/07/26 15:39:00;;;;;;;2.47;1.40;;;30.30;43.40;;;;;;10358129;28;20256;-71
2022/07/26 15:44:00;;;;;;;1.90;1.20;;;29.80;43.70;;;;;;10354376;28;20220;-72
2022/07/26 15:49:01;;;;;;;2.77;1.50;;;29.60;43.90;;;;;;10352677;28;20230;-71
2022/07/26 15:54:03;;;;;;;2.83;1.90;;;29.50;44.00;;;;;;10356308;28;20689;-72
2022/07/26 15:59:10;;;;;;;2.67;1.10;;;29.50;43.80;;;;;;10352414;28;20591;-72
2022/07/26 16:04:36;;;;;;;1.73;1.33;;;29.60;43.50;;;;;;10351069;28;20225;-71
2022/07/26 16:09:36;;;;;;;2.93;1.10;;;29.70;43.50;;;;;;10348630;28;20352;-71
2022/07/26 16:14:37;;;;;;;1.77;1.30;;;29.40;43.30;;;;;;10354937;28;20348;-71
2022/07/26 16:19:38;;;;;;;1.83;1.40;;;29.30;43.70;;;;;;10348885;28;20214;-71
2022/07/26 16:24:38;;;;;;;2.33;1.40;;;29.50;43.20;;;;;;10355556;28;20562;-71
2022/07/26 16:29:39;;;;;;;2.33;1.40;;;29.40;43.50;;;;;;10354870;28;20294;-71
2022/07/26 16:34:40;;;;;;;1.73;1.00;;;29.30;43.40;;;;;;10348280;28;20241;-72
2022/07/26 16:39:41;;;;;;;2.83;1.40;;;29.30;43.00;;;;;;10348511;28;20220;-72
2022/07/26 16:44:45;;;;;;;4.40;1.53;;;29.40;44.30;;;;;;10358168;28;20210;-73
2022/07/26 16:49:45;;;;;;;2.07;1.30;;;29.40;44.50;;;;;;10364981;28;20221;-72
2022/07/26 16:54:46;;;;;;;3.63;1.57;;;29.30;44.10;;;;;;10361791;28;20213;-72
2022/07/26 16:59:47;;;;;;;1.57;1.47;;;29.00;45.00;;;;;;10357163;28;20229;-71
2022/07/26 17:04:51;;;;;;;4.90;1.53;;;28.60;45.30;;;;;;10362536;28;20220;-72
2022/07/26 17:09:53;;;;;;;4.60;1.50;;;28.20;46.00;;;;;;10369708;28;20218;-72
2022/07/26 17:14:56;;;;;;;3.87;2.07;;;27.90;46.30;;;;;;10382234;28;20205;-71
2022/07/26 17:19:57;;;;;;;1.30;1.20;;;27.80;46.80;;;;;;10366988;28;20217;-72
2022/07/26 17:24:58;;;;;;;3.40;1.80;;;27.80;47.40;;;;;;10381979;28;20229;-72
2022/07/26 17:29:59;;;;;;;4.27;1.87;;;27.60;47.50;;;;;;10371396;28;20249;-72
2022/07/26 17:34:59;;;;;;;3.23;1.47;;;27.40;48.00;;;;;;10366953;28;20263;-72
2022/07/26 17:40:01;;;;;;;2.07;1.67;;;27.40;48.20;;;;;;10367711;28;20248;-72
2022/07/26 17:45:06;;;;;;;3.83;1.63;;;27.30;47.90;;;;;;10368555;28;20223;-72
2022/07/26 17:50:08;;;;;;;5.70;1.90;;;27.30;48.20;;;;;;10373395;28;20228;-72
2022/07/26 17:55:09;;;;;;;3.20;1.80;;;27.20;48.50;;;;;;10359858;28;20268;-72
2022/07/26 18:00:10;;;;;;;5.53;1.80;;;27.00;48.30;;;;;;10357441;28;20188;-71
2022/07/26 18:05:11;;;;;;;2.30;2.00;;;26.90;48.80;;;;;;10358310;28;20668;-72
2022/07/26 18:10:15;;;;;;;2.27;1.80;;;26.80;49.10;;;;;;10362075;28;20185;-72
2022/07/26 18:15:18;;;;;;;4.87;2.10;;;26.70;50.60;;;;;;10359909;28;20277;-72
2022/07/26 18:20:19;;;;;;;4.47;1.90;;;26.50;51.10;;;;;;10354042;28;20189;-73
2022/07/26 18:25:22;;;;;;;3.47;2.00;;;26.30;51.90;;;;;;10391180;28;20209;-72
2022/07/26 18:30:23;;;;;;;3.00;1.83;;;26.10;52.50;;;;;;10376134;28;20660;-72
2022/07/26 18:35:27;;;;;;;3.80;2.03;;;25.90;53.10;;;;;;10362256;28;20233;-72
2022/07/26 18:40:27;;;;;;;3.43;1.90;;;25.70;53.50;;;;;;10355717;28;20303;-73
2022/07/26 18:45:28;;;;;;;4.33;1.93;;;25.60;54.10;;;;;;10359744;28;20232;-72
2022/07/26 18:50:29;;;;;;;6.37;2.00;;;25.40;54.30;;;;;;10372601;28;20223;-72
2022/07/26 18:55:32;;;;;;;6.90;2.03;;;25.30;54.30;;;;;;10352195;28;20236;-71
2022/07/26 19:00:33;;;;;;;6.13;2.30;;;25.20;54.30;;;;;;10350713;28;20214;-72
2022/07/26 19:05:34;;;;;;;7.53;2.13;;;25.00;54.50;;;;;;10373111;28;20602;-72
2022/07/26 19:10:35;;;;;;;4.40;2.10;;;25.00;54.70;;;;;;10358461;28;20222;-70
2022/07/26 19:15:41;;;;;;;5.63;2.00;;;24.90;54.90;;;;;;10358624;28;20227;-72
2022/07/26 19:20:43;;;;;;;5.80;1.80;;;25.00;57.60;;;;;;10378235;28;20790;-73
2022/07/26 19:25:44;;;;;;;4.90;1.67;;;25.00;56.60;;;;;;10366248;28;20260;-71
2022/07/26 19:30:45;;;;;;;2.70;1.97;;;24.80;55.00;;;;;;10355634;28;20651;-70
2022/07/26 19:35:49;;;;;;;3.97;1.80;;;24.60;55.40;;;;;;10360354;28;20217;-70
2022/07/26 19:40:49;;;;;;;1.97;1.73;;;24.40;56.10;;;;;;10364324;28;20280;-71
2022/07/26 19:45:50;;;;;;;3.33;1.97;;;24.30;56.30;;;;;;10363153;28;20769;-70
2022/07/26 19:50:51;;;;;;;2.63;2.00;;;24.20;57.00;;;;;;10356962;28;20223;-69
2022/07/26 19:55:51;;;;;;;3.17;2.10;;;24.20;56.90;;;;;;10363854;28;20225;-70
2022/07/26 20:00:52;;;;;;;3.80;1.90;;;24.20;57.00;;;;;;10353385;28;20276;-70
2022/07/26 20:05:57;;;;;;;2.47;2.00;;;24.10;57.20;;;;;;10349017;28;20236;-71
2022/07/26 20:10:57;;;;;;;2.63;1.80;;;24.00;57.30;;;;;;10355285;28;20217;-72
2022/07/26 20:16:01;;;;;;;2.53;2.00;;;24.00;57.50;;;;;;10345130;28;20688;-70
2022/07/26 20:21:01;;;;;;;4.17;2.00;;;24.00;57.50;;;;;;10366845;28;20240;-71
2022/07/26 20:26:02;;;;;;;4.50;2.00;;;24.00;57.60;;;;;;10359571;28;20243;-70
2022/07/26 20:31:02;;;;;;;4.67;2.13;;;23.90;57.60;;;;;;10357040;28;20747;-71
2022/07/26 20:36:03;;;;;;;3.73;2.30;;;23.90;57.60;;;;;;10360080;28;20229;-71
2022/07/26 20:41:07;;;;;;;2.93;1.77;;;23.90;57.90;;;;;;10361815;28;20223;-71
2022/07/26 20:46:10;;;;;;;3.10;2.13;;;23.90;58.10;;;;;;10346783;28;20711;-71
2022/07/26 20:51:11;;;;;;;2.80;1.93;;;23.80;58.30;;;;;;10369215;28;20309;-71
2022/07/26 20:56:12;;;;;;;2.70;1.80;;;23.80;58.50;;;;;;10355023;28;20304;-71
2022/07/26 21:01:13;;;;;;;4.03;1.70;;;23.80;58.20;;;;;;10357386;28;20601;-71
2022/07/26 21:06:13;;;;;;;6.77;1.90;;;23.70;58.20;;;;;;10355730;28;20325;-71
2022/07/26 21:11:14;;;;;;;4.80;1.60;;;23.70;58.30;;;;;;10361773;28;20299;-71
2022/07/26 21:16:14;;;;;;;3.30;1.80;;;23.60;58.20;;;;;;10357533;28;20213;-70
2022/07/26 21:21:15;;;;;;;3.43;1.80;;;23.50;58.50;;;;;;10361035;28;20715;-72
2022/07/26 21:26:16;;;;;;;4.23;1.67;;;23.50;58.90;;;;;;10357497;28;20654;-72
2022/07/26 21:31:16;;;;;;;4.33;1.80;;;23.50;59.00;;;;;;10359282;28;20685;-72
2022/07/26 21:36:17;;;;;;;4.27;1.90;;;23.50;59.30;;;;;;10370896;28;20618;-72
2022/07/26 21:41:18;;;;;;;4.50;1.93;;;23.40;59.30;;;;;;10371645;28;20287;-72
2022/07/26 21:46:19;;;;;;;2.73;1.73;;;23.40;59.80;;;;;;10361946;28;20786;-71
2022/07/26 21:51:20;;;;;;;2.13;1.87;;;23.20;60.30;;;;;;10351957;28;20245;-71
2022/07/26 21:56:20;;;;;;;4.90;1.90;;;23.10;61.20;;;;;;10356864;28;20240;-71
2022/07/26 22:01:21;;;;;;;3.47;2.00;;;23.00;62.70;;;;;;10367879;28;20319;-71
2022/07/26 22:06:21;;;;;;;2.27;1.53;;;22.90;63.60;;;;;;10360444;28;20230;-71
2022/07/26 22:11:22;;;;;;;5.57;2.53;;;22.90;64.20;;;;;;10365761;28;20221;-71
2022/07/26 22:16:22;;;;;;;2.80;1.97;;;22.90;64.60;;;;;;10361175;28;20225;-70
2022/07/26 22:21:23;;;;;;;2.67;1.80;;;22.80;65.10;;;;;;10358688;28;20233;-72
2022/07/26 22:26:29;;;;;;;2.87;1.90;;;22.70;65.60;;;;;;10358653;28;20229;-71
2022/07/26 22:31:30;;;;;;;3.23;2.07;;;22.60;66.20;;;;;;10366589;28;20224;-70
2022/07/26 22:36:30;;;;;;;2.73;2.07;;;22.50;66.60;;;;;;10358640;28;20225;-71
2022/07/26 22:41:31;;;;;;;2.20;1.53;;;22.40;67.20;;;;;;10364700;28;20249;-69
2022/07/26 22:46:32;;;;;;;1.93;1.57;;;22.30;68.30;;;;;;10363065;28;20225;-72
2022/07/26 22:51:32;;;;;;;3.53;1.80;;;22.10;69.10;;;;;;10357991;28;20249;-71
2022/07/26 22:56:33;;;;;;;3.50;1.40;;;22.00;70.00;;;;;;10357362;28;20226;-70
2022/07/26 23:01:33;;;;;;;4.17;1.40;;;21.90;70.90;;;;;;10370073;28;20773;-70
2022/07/26 23:06:34;;;;;;;2.30;1.60;;;21.80;71.60;;;;;;10357568;28;20264;-71
2022/07/26 23:11:34;;;;;;;2.07;1.53;;;21.70;72.30;;;;;;10357393;28;20232;-70
2022/07/26 23:16:35;;;;;;;2.67;1.53;;;21.60;73.00;;;;;;10360691;28;20236;-70
2022/07/26 23:21:36;;;;;;;1.47;1.37;;;21.50;73.60;;;;;;10363532;28;20221;-70
2022/07/26 23:26:39;;;;;;;3.03;1.70;;;21.40;74.40;;;;;;10349153;28;20233;-69
2022/07/26 23:31:41;;;;;;;1.07;1.07;;;21.30;74.80;;;;;;10366660;28;20267;-70
2022/07/26 23:36:41;;;;;;;1.90;1.70;;;21.30;75.20;;;;;;10356008;28;20896;-71
2022/07/26 23:41:42;;;;;;;1.90;1.30;;;21.20;75.70;;;;;;10363938;28;20312;-71
2022/07/26 23:46:42;;;;;;;1.50;1.40;;;21.10;76.80;;;;;;10356107;28;20233;-69
2022/07/26 23:51:43;;;;;;;2.13;1.23;;;21.10;77.50;;;;;;10356648;28;20229;-70
2022/07/26 23:56:44;;;;;;;2.27;1.20;;;21.10;78.80;;;;;;10354682;28;20225;-71
